Terminal Aerodrome Forecast
Issued by NWS Flagstaff, AZ

Home | Current Version | Previous Version | Text Only | Print | Product List | Glossary On
Versions: 1 2 3 4 5 6 7 8 9 10 11 12 13 14 15 16
000
FTUS45 KFGZ 242300
TAFFLG
TAF
KFLG 242323Z 2500/2524 22008KT P6SM SKC
     FM250100 VRB04KT P6SM SKC
     FM251800 22014G24KT P6SM SCT050 SCT200=

USA.gov is the U.S. government's official web portal to all federal, state and local government web resources and services.